Flight Track Log - Related Links

Times and Time Zones

All times are in EDT time to prevent confusion due to time zone crossing. See the UAL4236 flight status page for this flight to view local times or setup timezone preferences in your user account.

Time Position Orientation Groundspeed Altitude Reporting Facility
EDT Latitude Longitude Course Direction KTS MPH feet Rate Location/Type
Sun 12:16:56 PM 31.7686 -106.4061 202° Southwest 209 241 5,900  Level Albuquerque Center
Sun 12:17:11 PM 31.7578 -106.3944 138° Southeast 218 251 6,200 1,600 Climbing Albuquerque Center
Sun 12:17:56 PM 31.7594 -106.3311 88° East 288 331 7,500 1,672 Climbing Albuquerque Center
Sun 12:18:12 PM 31.7631 -106.3094 79° East 267 307 7,900 1,538 Climbing Albuquerque Center
Sun 12:19:00 PM 31.7385 -105.8621 96° East  Level FlightAware Approximate
Sun 12:19:14 PM 31.7861 -106.2178 73° East 290 334 9,500  Level Albuquerque Center
Sun 12:20:00 PM 31.7241 -105.7354 100° East  Level FlightAware Approximate
Sun 12:20:16 PM 31.7878 -106.1111 89° East 333 383 10,900  Level Albuquerque Center
Sun 12:21:00 PM 31.7099 -105.6086 96° East  Level FlightAware Approximate
Sun 12:21:17 PM 31.7750 -105.9903 97° East 373 429 11,500  Level Albuquerque Center
Sun 12:22:19 PM 31.7586 -105.8581 98° East 405 466 12,300 1,113 Climbing Albuquerque Center
Sun 12:23:21 PM 31.7408 -105.6978 97° East 411 473 13,800 1,258 Climbing Albuquerque Center
Sun 12:24:23 PM 31.7244 -105.5642 98° East 413 475 14,900 1,024 Climbing Albuquerque Center
Sun 12:25:24 PM 31.7081 -105.4331 98° East 408 470 15,900 976 Climbing Albuquerque Center
Sun 12:26:26 PM 31.6917 -105.2994 98° East 411 473 16,900 919 Climbing Albuquerque Center
Sun 12:27:28 PM 31.6764 -105.1675 98° East 409 471 17,800 968 Climbing Albuquerque Center
Sun 12:28:30 PM 31.6589 -105.0311 99° East 417 480 18,900 1,024 Climbing Albuquerque Center
Sun 12:29:31 PM 31.6422 -104.8947 98° East 421 484 19,900 976 Climbing Albuquerque Center
Sun 12:30:33 PM 31.6256 -104.7558 98° East 424 488 20,900 1,065 Climbing Albuquerque Center
Sun 12:31:35 PM 31.6039 -104.5892 99° East 427 491 22,100 1,113 Climbing Albuquerque Center
Sun 12:32:37 PM 31.5858 -104.4492 99° East 431 496 23,200 1,024 Climbing Albuquerque Center
Sun 12:33:38 PM 31.5675 -104.3097 99° East 431 496 24,200 976 Climbing Albuquerque Center
Sun 12:34:40 PM 31.5494 -104.1708 99° East 431 496 25,200 968 Climbing Albuquerque Center
Sun 12:35:42 PM 31.5314 -104.0319 99° East 431 496 26,200 968 Climbing Albuquerque Center
Sun 12:36:44 PM 31.5131 -103.8936 99° East 431 496 27,200 1,016 Climbing Albuquerque Center
Sun 12:37:46 PM 31.4911 -103.7303 99° East 428 493 28,300 1,016 Climbing Albuquerque Center
Sun 12:38:48 PM 31.4728 -103.5925 99° East 428 493 29,300 976 Climbing Albuquerque Center
Sun 12:39:49 PM 31.4553 -103.4533 98° East 431 496 30,300 927 Climbing Albuquerque Center
Sun 12:40:51 PM 31.4383 -103.3156 98° East 430 495 31,200 919 Climbing Albuquerque Center
Sun 12:41:53 PM 31.4206 -103.1750 98° East 434 499 32,200 871 Climbing Albuquerque Center
Sun 12:42:55 PM 31.4008 -103.0333 99° East 440 506 33,000 387 Climbing Albuquerque Center
Sun 12:43:57 PM 31.3833 -102.8872 98° East 449 517 33,000  Level Albuquerque Center
Sun 12:44:59 PM 31.3592 -102.7017 99° East 474 545 33,000  Level Albuquerque Center
Sun 12:46:01 PM 31.3386 -102.5414 98° East 491 565 33,000  Level Albuquerque Center
Sun 12:47:03 PM 31.3200 -102.3936 98° East 508 585 33,000  Level Albuquerque Center
Sun 12:48:05 PM 31.2947 -102.2031 99° East 500 575 33,000  Level Albuquerque Center
Sun 12:49:07 PM 31.2731 -102.0444 99° East 497 572 33,000  Level Albuquerque Center
Sun 12:50:09 PM 31.2531 -101.8847 98° East 496 571 33,000  Level Albuquerque Center
Sun 12:51:11 PM 31.2317 -101.7261 99° East 495 570 33,000  Level Albuquerque Center
Sun 12:52:03 PM 31.2142 -101.5997 99° East 495 570 33,000  Level Houston Center
Sun 12:53:05 PM 31.1867 -101.4117 100° East 491 565 33,000  Level Houston Center
Sun 12:54:07 PM 31.1656 -101.2514 99° East 490 564 33,000  Level Houston Center
Sun 12:55:09 PM 31.1442 -101.0939 99° East 491 565 33,000  Level Houston Center
Sun 12:56:11 PM 31.1214 -100.9347 99° East 496 571 33,000  Level Houston Center
Sun 12:57:13 PM 31.0986 -100.7761 99° East 495 570 33,000  Level Houston Center
Sun 12:58:15 PM 31.0764 -100.6156 99° East 500 575 33,000  Level Houston Center
Sun 12:59:17 PM 31.0522 -100.4561 100° East 499 574 33,000  Level Houston Center
Sun 01:00:19 PM 31.0289 -100.2958 100° East 500 575 33,000  Level Houston Center
Sun 01:01:21 PM 31.0003 -100.1036 100° East 500 575 33,000  Level Houston Center
Sun 01:02:23 PM 30.9767 -99.9447 100° East 498 573 33,000  Level Houston Center
Sun 01:03:25 PM 30.9528 -99.7847 100° East 500 575 33,000  Level Houston Center
Sun 01:04:27 PM 30.9289 -99.6242 100° East 504 580 33,000  Level Houston Center
Sun 01:05:29 PM 30.9261 -99.4647 91° East 492 566 33,000 -145 Level Houston Center
Sun 01:06:31 PM 30.9206 -99.3028 92° East 498 573 32,700 -912 Descending Houston Center
Sun 01:07:34 PM 30.9175 -99.1317 91° East 493 567 31,100 -1,440 Descending Houston Center
Sun 01:08:36 PM 30.9139 -98.9694 91° East 495 570 29,700 -1,016 Descending Houston Center
Sun 01:09:38 PM 30.9086 -98.7808 92° East 496 571 29,000 -339 Descending Houston Center
Sun 01:10:40 PM 30.9061 -98.6200 91° East 494 568 29,000  Level Houston Center
Sun 01:11:42 PM 30.9008 -98.4575 92° East 496 571 29,000  Level Houston Center
Sun 01:12:44 PM 30.8964 -98.2969 92° East 495 570 29,000  Level Houston Center
Sun 01:13:46 PM 30.8942 -98.1358 91° East 494 568 29,000  Level Houston Center
Sun 01:14:48 PM 30.8878 -97.9767 93° East 490 564 29,000  Level Houston Center
Sun 01:15:50 PM 30.8839 -97.8144 92° East 497 572 29,000  Level Houston Center
Sun 01:16:52 PM 30.8775 -97.6278 92° East 492 566 29,000  Level Houston Center
Sun 01:17:54 PM 30.8722 -97.4683 92° East 492 566 29,000 -145 Level Houston Center
Sun 01:18:56 PM 30.8653 -97.3108 93° East 493 567 28,700 -1,065 Descending Houston Center
Sun 01:19:58 PM 30.8619 -97.1553 91° East 493 567 26,800 -1,839 Descending Houston Center
Sun 01:21:00 PM 30.8569 -96.9992 92° East 485 558 24,900 -1,694 Descending Houston Center
Sun 01:22:02 PM 30.8333 -96.8189 99° East 478 550 23,300 -1,694 Descending Houston Center
Sun 01:23:04 PM 30.7769 -96.6767 115° Southeast 484 557 21,400 -1,887 Descending Houston Center
Sun 01:24:06 PM 30.7219 -96.5383 115° Southeast 471 542 19,400 -1,984 Descending Houston Center
Sun 01:25:08 PM 30.6686 -96.4031 115° Southeast 458 527 17,300 -1,935 Descending Houston Center
Sun 01:26:10 PM 30.6214 -96.2808 114° Southeast 416 479 15,400 -2,059 Descending Houston Center
Sun 01:26:50 PM 30.5842 -96.1897 115° Southeast 403 464 13,800 -1,935 Descending Houston Center
Sun 01:27:12 PM 30.5736 -96.1628 114° Southeast 403 464 13,400 -2,025 Descending Houston Center
Sun 01:28:10 PM 30.5231 -96.0392 115° Southeast 400 460 11,100 -1,714 Descending Houston Center
Sun 01:29:11 PM 30.4444 -95.9561 138° Southeast 363 418 10,000 -516 Descending Houston Center
Sun 01:30:18 PM 30.3561 -95.9017 152° Southeast 371 427 10,000  Level Houston Center
Sun 01:31:19 PM 30.2583 -95.8419 152° Southeast 303 349 10,000 -667 Level Houston Center
Sun 01:32:15 PM 30.1972 -95.7936 146° Southeast 290 334 8,700 -1,487 Descending Houston Center
Sun 01:33:16 PM 30.1408 -95.7228 133° Southeast 281 323 7,100 -1,525 Descending Houston Center
Sun 01:34:17 PM 30.0867 -95.6567 133° Southeast 279 321 5,600 -1,377 Descending Houston Center
Sun 01:35:18 PM 30.0367 -95.5928 132° Southeast 267 307 4,300 -1,279 Descending Houston Center

Login

Don't have an account? Register now (free) for customized features, flight alerts, and more!